createdAt,value
2019-06-10T00:01:31.329Z,3.27
2019-06-10T00:04:05.137Z,2.83
2019-06-10T00:06:31.574Z,3.17
2019-06-10T00:09:03.139Z,3.20
2019-06-10T00:11:31.513Z,3.23
2019-06-10T00:14:02.436Z,3.03
2019-06-10T00:16:30.940Z,3.30
2019-06-10T00:19:02.805Z,3.30
2019-06-10T00:21:30.808Z,3.23
2019-06-10T00:24:02.168Z,3.00
2019-06-10T00:26:30.746Z,3.83
2019-06-10T00:29:00.670Z,3.33
2019-06-10T00:31:31.228Z,2.87
2019-06-10T00:34:02.934Z,2.90
2019-06-10T00:36:30.975Z,3.20
2019-06-10T00:39:02.450Z,2.90
2019-06-10T00:41:31.321Z,2.53
2019-06-10T00:44:01.886Z,3.00
2019-06-10T00:46:31.657Z,2.80
2019-06-10T00:49:02.960Z,3.60
2019-06-10T00:51:31.396Z,3.30
2019-06-10T00:54:03.285Z,3.43
2019-06-10T00:56:31.006Z,2.90
2019-06-10T00:59:01.068Z,2.87
2019-06-10T01:01:31.324Z,3.17
2019-06-10T01:04:02.953Z,3.10
2019-06-10T01:06:31.773Z,3.20
2019-06-10T01:09:00.797Z,3.10
2019-06-10T01:11:31.076Z,3.13
2019-06-10T01:14:01.451Z,3.13
2019-06-10T01:16:31.839Z,3.33
2019-06-10T01:19:01.618Z,3.70
2019-06-10T01:21:31.313Z,3.47
2019-06-10T01:24:01.168Z,3.77
2019-06-10T01:26:31.106Z,4.23
2019-06-10T01:29:00.964Z,4.20
2019-06-10T01:31:31.772Z,3.87
2019-06-10T01:34:00.717Z,4.13
2019-06-10T01:36:31.395Z,4.20
2019-06-10T01:39:01.541Z,4.17
2019-06-10T01:41:30.651Z,4.40
2019-06-10T01:44:01.702Z,4.23
2019-06-10T01:46:31.688Z,4.27
2019-06-10T01:49:00.811Z,4.63
2019-06-10T01:51:31.616Z,5.37
2019-06-10T01:54:01.350Z,4.67
2019-06-10T01:56:31.459Z,4.93
2019-06-10T01:59:01.442Z,4.20
2019-06-10T02:01:41.389Z,4.10
2019-06-10T02:04:13.077Z,4.07
2019-06-10T02:06:41.049Z,5.07
2019-06-10T02:09:13.446Z,4.50
2019-06-10T02:11:41.527Z,4.13
2019-06-10T02:14:14.444Z,4.30
2019-06-10T02:16:41.488Z,4.90
2019-06-10T02:19:12.916Z,4.40
2019-06-10T02:21:41.701Z,4.03
2019-06-10T02:24:12.763Z,3.87
2019-06-10T02:26:41.386Z,4.00
2019-06-10T02:29:11.632Z,4.00
2019-06-10T02:31:43.243Z,4.60
2019-06-10T02:34:13.242Z,4.23
2019-06-10T02:36:44.540Z,4.30
2019-06-10T02:39:16.640Z,4.37
2019-06-10T02:41:44.694Z,4.30
2019-06-10T02:44:17.287Z,4.13
2019-06-10T02:46:43.985Z,3.90
2019-06-10T02:49:23.344Z,3.57
2019-06-10T02:51:44.009Z,3.40
2019-06-10T02:54:16.101Z,3.27
2019-06-10T02:56:44.217Z,3.30
2019-06-10T02:59:13.413Z,3.60
2019-06-10T03:01:43.912Z,4.57
2019-06-10T03:04:13.812Z,4.47
2019-06-10T03:06:44.979Z,4.80
2019-06-10T03:09:14.322Z,4.57
2019-06-10T03:11:44.910Z,5.60
2019-06-10T03:14:13.927Z,5.07
2019-06-10T03:16:44.317Z,5.13
2019-06-10T03:19:13.410Z,5.87
2019-06-10T03:21:42.915Z,5.73
2019-06-10T03:24:13.101Z,7.50
2019-06-10T03:26:42.886Z,7.47
2019-06-10T03:29:12.858Z,7.90
2019-06-10T03:31:47.558Z,9.70
2019-06-10T03:34:14.899Z,9.33
2019-06-10T03:36:43.009Z,8.10
2019-06-10T03:39:13.282Z,10.10
2019-06-10T03:41:42.475Z,10.37
2019-06-10T03:44:13.211Z,9.30
2019-06-10T03:46:43.087Z,9.17
2019-06-10T03:49:12.616Z,9.23
2019-06-10T03:51:42.867Z,8.37
2019-06-10T03:54:13.094Z,7.97
2019-06-10T03:56:42.980Z,7.47
2019-06-10T03:59:12.351Z,7.80
2019-06-10T04:01:42.555Z,7.50
2019-06-10T04:04:13.053Z,7.73
2019-06-10T04:06:44.191Z,7.53
2019-06-10T04:09:12.614Z,7.60
2019-06-10T04:11:43.184Z,7.20
2019-06-10T04:14:13.035Z,7.80
2019-06-10T04:16:43.385Z,7.13
2019-06-10T04:19:13.135Z,6.33
2019-06-10T04:21:43.202Z,6.47
2019-06-10T04:24:12.813Z,6.50
2019-06-10T04:26:43.555Z,6.90
2019-06-10T04:29:12.959Z,6.43
2019-06-10T04:31:42.654Z,6.60
2019-06-10T04:34:12.491Z,5.93
2019-06-10T04:36:42.307Z,6.30
2019-06-10T04:39:12.510Z,4.90
2019-06-10T04:41:42.687Z,4.87
2019-06-10T04:44:13.162Z,4.90
2019-06-10T04:46:42.751Z,5.57
2019-06-10T04:49:13.115Z,4.83
2019-06-10T04:51:43.536Z,5.20
2019-06-10T04:54:13.300Z,6.10
2019-06-10T04:56:42.981Z,5.27
2019-06-10T04:59:12.566Z,6.30
2019-06-10T05:01:42.539Z,5.97
2019-06-10T05:04:12.498Z,5.63
2019-06-10T05:06:42.351Z,5.20
2019-06-10T05:09:12.369Z,5.30
2019-06-10T05:11:43.226Z,4.10
2019-06-10T05:14:13.353Z,3.73
2019-06-10T05:16:43.092Z,4.00
2019-06-10T05:19:12.972Z,3.60
2019-06-10T05:21:42.392Z,3.83
2019-06-10T05:24:12.416Z,3.50
2019-06-10T05:26:42.634Z,3.30
2019-06-10T05:29:12.154Z,3.47
2019-06-10T05:31:43.499Z,3.90
2019-06-10T05:34:13.042Z,3.83
2019-06-10T05:36:43.547Z,4.10
2019-06-10T05:39:12.658Z,4.40
2019-06-10T05:41:43.342Z,4.50
2019-06-10T05:44:13.430Z,4.60
2019-06-10T05:46:43.497Z,4.37
2019-06-10T05:49:13.010Z,4.80
2019-06-10T05:51:42.488Z,4.83
2019-06-10T05:54:13.058Z,4.17
2019-06-10T05:56:43.463Z,4.03
2019-06-10T05:59:12.490Z,4.70
2019-06-10T06:01:43.191Z,5.27
2019-06-10T06:04:13.386Z,4.87
2019-06-10T06:06:44.928Z,4.77
2019-06-10T06:09:13.105Z,5.20
2019-06-10T06:11:43.058Z,5.60
2019-06-10T06:14:13.275Z,5.60
2019-06-10T06:16:43.343Z,4.70
2019-06-10T06:19:12.663Z,5.23
2019-06-10T06:21:47.062Z,5.20
2019-06-10T06:24:12.914Z,4.57
2019-06-10T06:26:43.288Z,5.60
2019-06-10T06:29:13.016Z,4.90
2019-06-10T06:31:42.924Z,5.33
2019-06-10T06:34:13.745Z,5.37
2019-06-10T06:36:42.813Z,6.20
2019-06-10T06:39:12.881Z,6.47
2019-06-10T06:41:42.700Z,6.23
2019-06-10T06:44:12.902Z,6.37
2019-06-10T06:46:42.928Z,5.40
2019-06-10T06:49:12.849Z,5.50
2019-06-10T06:51:51.927Z,5.47
2019-06-10T06:54:12.665Z,5.13
2019-06-10T06:56:43.790Z,5.73
2019-06-10T06:59:13.183Z,5.33
2019-06-10T07:01:44.189Z,5.10
2019-06-10T07:04:13.101Z,4.90
2019-06-10T07:06:43.384Z,4.90
2019-06-10T07:09:13.479Z,4.53
2019-06-10T07:11:45.539Z,4.17
2019-06-10T07:14:14.665Z,3.50
2019-06-10T07:16:45.999Z,4.77
2019-06-10T07:19:13.839Z,4.10
2019-06-10T07:22:03.779Z,3.17
2019-06-10T07:24:12.974Z,3.07
2019-06-10T07:26:49.557Z,3.80
2019-06-10T07:29:13.235Z,2.90
2019-06-10T07:31:45.589Z,3.00
2019-06-10T07:34:13.054Z,3.80
2019-06-10T07:36:44.084Z,3.30
2019-06-10T07:39:13.435Z,2.77
2019-06-10T07:41:47.434Z,2.93
2019-06-10T07:44:13.891Z,2.60
2019-06-10T07:46:45.218Z,2.33
2019-06-10T07:49:14.805Z,2.37
2019-06-10T07:51:46.164Z,2.60
2019-06-10T07:54:13.938Z,2.80
2019-06-10T07:56:50.041Z,2.07
2019-06-10T07:59:13.158Z,2.67
2019-06-10T08:01:48.832Z,2.83
2019-06-10T08:04:12.431Z,2.33
2019-06-10T08:06:45.726Z,2.03
2019-06-10T08:09:13.818Z,2.60
2019-06-10T08:11:46.728Z,2.50
2019-06-10T08:14:13.185Z,2.57
2019-06-10T08:16:46.040Z,2.20
2019-06-10T08:19:34.774Z,2.73
2019-06-10T08:21:47.038Z,2.50
2019-06-10T08:24:13.626Z,2.53
2019-06-10T08:26:44.273Z,2.80
2019-06-10T08:29:14.046Z,3.33
2019-06-10T08:31:46.542Z,2.90
2019-06-10T08:34:13.542Z,2.70
2019-06-10T08:36:47.229Z,3.20
2019-06-10T08:39:15.791Z,2.60
2019-06-10T08:41:46.048Z,2.80
2019-06-10T08:44:13.671Z,2.70
2019-06-10T08:46:44.992Z,2.40
2019-06-10T08:49:13.254Z,3.20
2019-06-10T08:51:45.417Z,3.00
2019-06-10T08:54:12.890Z,2.80
2019-06-10T08:56:45.591Z,3.43
2019-06-10T08:59:12.393Z,3.00
2019-06-10T09:01:45.955Z,3.07
2019-06-10T09:04:13.320Z,3.63
2019-06-10T09:06:47.175Z,3.90
2019-06-10T09:09:12.993Z,3.17
2019-06-10T09:11:46.917Z,3.80
2019-06-10T09:14:12.721Z,3.80
2019-06-10T09:16:44.371Z,3.70
2019-06-10T09:19:13.209Z,4.10
2019-06-10T09:21:48.104Z,5.07
2019-06-10T09:24:13.099Z,4.40
2019-06-10T09:26:46.531Z,4.77
2019-06-10T09:29:13.413Z,4.63
2019-06-10T09:31:46.760Z,5.40
2019-06-10T09:34:12.929Z,5.47
2019-06-10T09:36:46.201Z,5.00
2019-06-10T09:39:12.660Z,4.00
2019-06-10T09:41:50.326Z,5.20
2019-06-10T09:44:12.919Z,4.67
2019-06-10T09:46:47.020Z,6.63
2019-06-10T09:49:14.931Z,5.97
2019-06-10T09:51:48.220Z,6.03
2019-06-10T09:54:14.209Z,6.23
2019-06-10T09:56:45.405Z,5.80
2019-06-10T09:59:14.994Z,4.97
2019-06-10T10:01:48.329Z,5.90
2019-06-10T10:04:14.698Z,3.73
2019-06-10T10:06:46.466Z,4.60
2019-06-10T10:09:14.070Z,4.40
2019-06-10T10:11:45.750Z,3.73
2019-06-10T10:14:15.922Z,3.40
2019-06-10T10:16:47.875Z,3.30
2019-06-10T10:19:14.171Z,3.63
2019-06-10T10:21:46.909Z,3.50
2019-06-10T10:24:15.111Z,3.17
2019-06-10T10:26:47.816Z,3.43
2019-06-10T10:29:14.427Z,2.97
2019-06-10T10:31:47.384Z,2.80
2019-06-10T10:34:13.999Z,3.80
2019-06-10T10:36:45.064Z,2.00
2019-06-10T10:39:13.923Z,2.40
2019-06-10T10:41:45.200Z,3.23
2019-06-10T10:44:14.628Z,3.47
2019-06-10T10:46:44.227Z,2.70
2019-06-10T10:49:14.320Z,2.67
2019-06-10T10:51:43.152Z,3.17
2019-06-10T10:54:28.498Z,2.50
2019-06-10T10:56:43.619Z,3.20
2019-06-10T10:59:13.414Z,3.30
2019-06-10T11:01:43.955Z,2.70
2019-06-10T11:04:13.380Z,3.10
2019-06-10T11:06:44.299Z,3.00
2019-06-10T11:09:13.178Z,2.33
2019-06-10T11:11:44.110Z,2.70
2019-06-10T11:14:14.316Z,2.93
2019-06-10T11:16:45.155Z,2.13
2019-06-10T11:19:14.047Z,2.73
2019-06-10T11:21:43.355Z,2.20
2019-06-10T11:24:14.506Z,1.90
2019-06-10T11:26:43.121Z,2.40
2019-06-10T11:29:12.222Z,2.60
2019-06-10T11:31:42.549Z,2.53
2019-06-10T11:34:11.655Z,2.77
2019-06-10T11:36:42.396Z,3.17
2019-06-10T11:39:13.195Z,2.77
2019-06-10T11:41:43.619Z,2.73
2019-06-10T11:44:12.075Z,2.87
2019-06-10T11:46:42.878Z,2.67
2019-06-10T11:49:12.572Z,2.60
2019-06-10T11:51:41.422Z,2.40
2019-06-10T11:54:12.630Z,2.63
2019-06-10T11:56:42.140Z,2.70
2019-06-10T11:59:13.396Z,2.20
2019-06-10T12:01:42.636Z,2.03
2019-06-10T12:04:12.925Z,2.57
2019-06-10T12:06:42.578Z,2.57
2019-06-10T12:09:13.704Z,2.10
2019-06-10T12:11:43.676Z,2.50
2019-06-10T12:14:12.965Z,2.20
2019-06-10T12:19:12.868Z,2.20
2019-06-10T12:21:43.417Z,2.17
2019-06-10T12:24:12.697Z,2.20
2019-06-10T12:26:43.380Z,2.60
2019-06-10T12:29:12.615Z,2.20
2019-06-10T12:31:42.840Z,1.87
2019-06-10T12:34:12.468Z,1.83
2019-06-10T12:36:41.370Z,1.73
2019-06-10T12:39:11.909Z,1.80
2019-06-10T12:41:42.891Z,1.90
2019-06-10T12:44:12.326Z,1.87
2019-06-10T12:46:43.143Z,2.13
2019-06-10T12:49:13.128Z,1.70
2019-06-10T12:51:42.680Z,1.60
2019-06-10T12:54:13.101Z,1.93
2019-06-10T12:56:42.985Z,1.60
2019-06-10T12:59:13.551Z,2.00
2019-06-10T13:01:44.822Z,1.47
2019-06-10T13:04:13.957Z,2.60
2019-06-10T13:06:44.126Z,2.20
2019-06-10T13:09:12.999Z,2.77
2019-06-10T13:11:43.301Z,2.30
2019-06-10T13:14:13.007Z,1.97
2019-06-10T13:16:43.288Z,2.33
2019-06-10T13:19:13.195Z,1.97
2019-06-10T13:21:42.725Z,2.30
2019-06-10T13:24:13.243Z,2.20
2019-06-10T13:26:43.183Z,1.73
2019-06-10T13:29:16.909Z,1.93
2019-06-10T13:31:43.496Z,2.30
2019-06-10T13:34:14.678Z,2.20
2019-06-10T13:36:43.117Z,2.07
2019-06-10T13:39:13.509Z,2.70
2019-06-10T13:41:43.923Z,1.97
2019-06-10T13:44:16.496Z,1.90
2019-06-10T13:46:43.575Z,2.10
2019-06-10T13:49:15.156Z,2.40
2019-06-10T13:51:43.978Z,2.30
2019-06-10T13:54:13.921Z,2.60
2019-06-10T13:56:47.360Z,2.90
2019-06-10T13:59:14.233Z,2.20
2019-06-10T14:01:43.142Z,2.63
2019-06-10T14:04:21.209Z,2.73
2019-06-10T14:06:49.511Z,2.60
2019-06-10T14:09:16.660Z,3.10
2019-06-10T14:11:43.180Z,3.37
2019-06-10T14:14:17.581Z,2.63
2019-06-10T14:16:42.636Z,3.03
2019-06-10T14:19:15.710Z,3.30
2019-06-10T14:21:42.524Z,3.10
2019-06-10T14:24:15.761Z,2.87
2019-06-10T14:26:45.230Z,3.10
2019-06-10T14:29:15.610Z,2.90
2019-06-10T14:31:45.038Z,3.10
2019-06-10T14:34:16.780Z,3.27
2019-06-10T14:36:43.575Z,3.00
2019-06-10T14:39:13.139Z,3.40
2019-06-10T14:41:43.206Z,3.23
2019-06-10T14:44:16.117Z,3.53
2019-06-10T14:46:42.734Z,2.80
2019-06-10T14:49:13.586Z,3.40
2019-06-10T14:51:43.095Z,3.50
2019-06-10T14:54:17.421Z,3.43
2019-06-10T14:56:53.472Z,3.30
2019-06-10T14:59:14.908Z,3.27
2019-06-10T15:01:44.257Z,3.70
2019-06-10T15:04:16.040Z,4.00
2019-06-10T15:06:43.522Z,3.17
2019-06-10T15:09:13.602Z,3.30
2019-06-10T15:11:42.888Z,3.50
2019-06-10T15:14:14.206Z,3.43
2019-06-10T15:16:43.758Z,3.20
2019-06-10T15:19:20.031Z,3.50
2019-06-10T15:21:43.427Z,3.17
2019-06-10T15:24:12.276Z,4.00
2019-06-10T15:26:42.236Z,4.23
2019-06-10T15:29:11.904Z,3.97
2019-06-10T15:31:42.845Z,3.93
2019-06-10T15:34:15.024Z,3.60
2019-06-10T15:36:43.203Z,4.13
2019-06-10T15:39:16.176Z,3.70
2019-06-10T15:41:42.875Z,4.40
2019-06-10T15:44:14.564Z,4.00
2019-06-10T15:46:43.061Z,3.60
2019-06-10T15:49:15.802Z,4.20
2019-06-10T15:51:43.563Z,4.00
2019-06-10T15:54:14.006Z,3.57
2019-06-10T15:56:49.932Z,3.80
2019-06-10T15:59:15.368Z,3.60
2019-06-10T16:01:44.006Z,3.60
2019-06-10T16:04:14.438Z,4.10
2019-06-10T16:06:43.503Z,4.50
2019-06-10T16:09:13.776Z,4.63
2019-06-10T16:11:43.575Z,4.13
2019-06-10T16:14:14.642Z,4.20
2019-06-10T16:16:43.546Z,3.53
2019-06-10T16:19:13.290Z,3.53
2019-06-10T16:21:42.979Z,3.80
2019-06-10T16:24:14.708Z,4.27
2019-06-10T16:26:42.211Z,3.90
2019-06-10T16:29:12.339Z,3.97
2019-06-10T16:31:42.573Z,3.70
2019-06-10T16:34:12.738Z,3.90
2019-06-10T16:36:42.787Z,3.47
2019-06-10T16:39:12.567Z,3.77
2019-06-10T16:41:43.026Z,3.87
2019-06-10T16:44:13.538Z,3.80
2019-06-10T16:46:43.231Z,4.13
2019-06-10T16:49:12.735Z,4.00
2019-06-10T16:51:42.945Z,4.10
2019-06-10T16:54:12.978Z,4.03
2019-06-10T16:56:43.538Z,3.70
2019-06-10T16:59:12.421Z,4.10
2019-06-10T17:01:42.809Z,4.17
2019-06-10T17:04:12.509Z,3.97
2019-06-10T17:06:42.235Z,4.50
2019-06-10T17:09:13.333Z,4.80
2019-06-10T17:11:42.658Z,4.43
2019-06-10T17:14:12.569Z,5.00
2019-06-10T17:16:41.662Z,4.53
2019-06-10T17:19:10.452Z,4.47
2019-06-10T17:21:39.235Z,4.47
2019-06-10T17:24:07.944Z,3.60
2019-06-10T17:26:38.230Z,3.97
2019-06-10T17:29:07.173Z,4.10
2019-06-10T17:31:35.994Z,4.10
2019-06-10T17:34:04.796Z,4.03
2019-06-10T17:36:35.395Z,3.97
2019-06-10T17:39:05.494Z,4.43
2019-06-10T17:41:35.275Z,4.20
2019-06-10T17:44:04.598Z,4.03
2019-06-10T17:46:35.305Z,4.07
2019-06-10T17:49:04.393Z,4.80
2019-06-10T17:51:35.480Z,3.87
2019-06-10T17:54:03.835Z,4.73
2019-06-10T17:56:36.003Z,4.17
2019-06-10T17:59:03.526Z,4.20
2019-06-10T18:01:34.200Z,4.40
2019-06-10T18:04:03.097Z,4.40
2019-06-10T18:06:34.406Z,4.80
2019-06-10T18:09:04.064Z,4.93
2019-06-10T18:11:35.668Z,4.53
2019-06-10T18:14:03.397Z,4.43
2019-06-10T18:16:36.134Z,4.40
2019-06-10T18:19:03.446Z,5.07
2019-06-10T18:21:33.523Z,5.10
2019-06-10T18:24:06.825Z,4.90
2019-06-10T18:26:37.274Z,4.80
2019-06-10T18:29:08.208Z,4.97
2019-06-10T18:31:36.758Z,5.27
2019-06-10T18:34:05.650Z,4.23
2019-06-10T18:36:35.836Z,4.50
2019-06-10T18:39:07.054Z,4.73
2019-06-10T18:41:37.336Z,4.80
2019-06-10T18:44:18.849Z,4.77
2019-06-10T18:46:37.770Z,4.57
2019-06-10T18:49:06.595Z,4.90
2019-06-10T18:51:37.238Z,4.67
2019-06-10T18:54:05.844Z,4.83
2019-06-10T18:56:36.056Z,4.50
2019-06-10T18:59:16.701Z,4.53
2019-06-10T19:01:36.778Z,4.90
2019-06-10T19:04:05.650Z,4.60
2019-06-10T19:06:36.507Z,4.80
2019-06-10T19:09:07.258Z,4.37
2019-06-10T19:11:37.245Z,4.17
2019-06-10T19:14:06.450Z,4.50
2019-06-10T19:16:35.812Z,4.30
2019-06-10T19:19:05.834Z,4.50
2019-06-10T19:21:36.286Z,5.03
2019-06-10T19:24:05.310Z,4.30
2019-06-10T19:26:37.362Z,3.97
2019-06-10T19:29:05.050Z,4.53
2019-06-10T19:31:36.271Z,4.60
2019-06-10T19:34:04.318Z,4.37
2019-06-10T19:36:33.584Z,4.03
2019-06-10T19:39:02.516Z,4.40
2019-06-10T19:41:35.760Z,4.30
2019-06-10T19:44:02.513Z,4.17
2019-06-10T19:46:33.769Z,4.10
2019-06-10T19:49:04.103Z,4.80
2019-06-10T19:51:32.874Z,4.03
2019-06-10T19:54:03.758Z,4.60
2019-06-10T19:56:33.048Z,4.63
2019-06-10T19:59:02.019Z,4.37
2019-06-10T20:01:33.316Z,4.43
2019-06-10T20:04:02.661Z,3.77
2019-06-10T20:06:32.271Z,4.20
2019-06-10T20:09:02.695Z,4.40
2019-06-10T20:11:32.190Z,4.50
2019-06-10T20:14:02.541Z,4.37
2019-06-10T20:16:33.175Z,4.10
2019-06-10T20:19:03.041Z,4.10
2019-06-10T20:21:33.034Z,4.03
2019-06-10T20:24:02.818Z,3.80
2019-06-10T20:26:32.902Z,3.10
2019-06-10T20:29:03.769Z,2.57
2019-06-10T20:31:32.672Z,2.33
2019-06-10T20:34:02.689Z,2.53
2019-06-10T20:36:33.479Z,2.47
2019-06-10T20:39:01.946Z,2.27
2019-06-10T20:41:30.850Z,2.17
2019-06-10T20:43:59.630Z,1.97
2019-06-10T20:46:28.374Z,2.00
2019-06-10T20:48:57.178Z,1.90
2019-06-10T20:51:27.176Z,2.63
2019-06-10T20:53:56.600Z,2.53
2019-06-10T20:56:25.655Z,2.20
2019-06-10T20:58:54.404Z,3.10
2019-06-10T21:01:25.178Z,2.50
2019-06-10T21:03:54.311Z,2.97
2019-06-10T21:06:23.943Z,3.40
2019-06-10T21:08:54.860Z,3.90
2019-06-10T21:11:23.714Z,3.93
2019-06-10T21:13:55.513Z,3.40
2019-06-10T21:16:23.337Z,4.07
2019-06-10T21:18:55.399Z,4.87
2019-06-10T21:21:24.579Z,4.10
2019-06-10T21:23:54.083Z,3.97
2019-06-10T21:26:23.819Z,4.57
2019-06-10T21:28:55.042Z,5.10
2019-06-10T21:31:23.330Z,5.67
2019-06-10T21:33:55.793Z,5.40
2019-06-10T21:36:23.045Z,5.90
2019-06-10T21:38:55.759Z,5.83
2019-06-10T21:41:23.060Z,6.13
2019-06-10T21:43:58.927Z,5.90
2019-06-10T21:46:22.694Z,6.23
2019-06-10T21:48:53.207Z,5.90
2019-06-10T21:51:22.765Z,6.10
2019-06-10T21:53:54.741Z,5.63
2019-06-10T21:56:22.706Z,6.47
2019-06-10T21:58:53.606Z,5.90
2019-06-10T22:01:22.667Z,6.60
2019-06-10T22:04:00.203Z,6.27
2019-06-10T22:06:22.796Z,5.90
2019-06-10T22:08:54.254Z,6.53
2019-06-10T22:11:23.294Z,6.63
2019-06-10T22:13:53.284Z,7.67
2019-06-10T22:16:22.802Z,7.23
2019-06-10T22:18:52.924Z,6.50
2019-06-10T22:21:22.681Z,7.50
2019-06-10T22:23:55.234Z,8.40
2019-06-10T22:26:22.514Z,7.83
2019-06-10T22:28:53.843Z,7.77
2019-06-10T22:31:23.851Z,7.43
2019-06-10T22:33:55.841Z,8.03
2019-06-10T22:36:23.278Z,7.77
2019-06-10T22:38:55.801Z,7.00
2019-06-10T22:41:22.769Z,8.30
2019-06-10T22:43:54.222Z,8.07
2019-06-10T22:46:23.151Z,7.90
2019-06-10T22:48:53.430Z,8.00
2019-06-10T22:51:22.865Z,8.57
2019-06-10T22:53:54.730Z,7.67
2019-06-10T22:56:22.092Z,8.03
2019-06-10T22:58:53.965Z,7.57
2019-06-10T23:01:33.653Z,6.90
2019-06-10T23:03:52.172Z,7.17
2019-06-10T23:06:23.293Z,6.40
2019-06-10T23:08:54.687Z,6.20
2019-06-10T23:11:24.037Z,6.10
2019-06-10T23:13:54.726Z,6.83
2019-06-10T23:16:22.998Z,5.53
2019-06-10T23:18:54.988Z,6.77
2019-06-10T23:21:22.179Z,6.10
2019-06-10T23:23:53.869Z,6.20
2019-06-10T23:26:22.544Z,7.47
2019-06-10T23:28:53.844Z,6.87
2019-06-10T23:31:23.027Z,6.83
2019-06-10T23:33:55.960Z,7.67
2019-06-10T23:36:23.571Z,7.67
2019-06-10T23:38:52.799Z,8.60
2019-06-10T23:41:22.433Z,8.80
2019-06-10T23:43:51.311Z,8.70
2019-06-10T23:46:22.592Z,8.73
2019-06-10T23:48:51.477Z,8.53
2019-06-10T23:51:22.640Z,10.07
2019-06-10T23:53:55.330Z,9.53
2019-06-10T23:56:22.144Z,10.33
2019-06-10T23:58:52.802Z,9.70
